AirNav   TITAN Aviation Fuels
 
 947 users online  

H19 Bowling Green Municipal Airport
Bowling Green, Missouri, USA

GOING TO BOWLING GREEN?


FAA INFORMATION EFFECTIVE 16 JUNE 2022

Location

FAA Identifier: H19
Lat/Long: 39-22-14.5070N 091-13-13.0060W
39-22.241783N 091-13.216767W
39.3706964,-91.2202794
(estimated)
Elevation: 891.4 ft. / 271.7 m (surveyed)
Variation: 01E (2000)
From city: 2 miles NW of BOWLING GREEN, MO
Time zone: UTC -5 (UTC -6 during Standard Time)
Zip code: 63334

Airport Operations

Airport use: Open to the public
Activation date: 09/1941
Control tower: no
ARTCC: KANSAS CITY CENTER
FSS: SAINT LOUIS FLIGHT SERVICE STATION
NOTAMs facility: STL (NOTAM-D service available)
Attendance: CONTINUOUS
Wind indicator: lighted
Segmented circle: yes
Lights: ACTVT REIL RWY 13 AND 31; PAPI RWY 13 AND 31; MIRL RWY 13/31 - CTAF.
Beacon: white-green (lighted land airport)
Operates sunset to sunrise.

Airport Communications

CTAF/UNICOM: 122.8
  • UNICOM IREG MNTD.
  • APCH/DEP SVC PRVDD BY KANSAS CITY ARTCC ON FREQS 126.225/317.775 (QUINCY RCAG).

Airport Services

Fuel available: 100LL
Parking: tiedowns
Bottled oxygen: NONE
Bulk oxygen: NONE

Runway Information

Runway 13/31

Dimensions: 3203 x 75 ft. / 976 x 23 m
Surface: concrete, in excellent condition
Weight bearing capacity: 
Single wheel: 12.5
Runway edge lights: medium intensity
RUNWAY 13  RUNWAY 31
Latitude: 39-22.426655N39-22.056913N
Longitude: 091-13.459237W091-12.974333W
Elevation: 871.6 ft.891.4 ft.
Traffic pattern: leftleft
Runway heading: 133 magnetic, 134 true313 magnetic, 314 true
Markings: nonprecision, in good conditionnonprecision, in good condition
Visual slope indicator: 2-light PAPI on left (3.00 degrees glide path)2-light PAPI on left (3.00 degrees glide path)
Runway end identifier lights: yesyes
Touchdown point: yes, no lightsyes, no lights
Obstructions: none
30-50 FT TALL TREES 0-125 FT FROM RWY 13 THRESHOLD 150-250 FT R
48 ft. tree, 655 ft. from runway, 170 ft. left of centerline, 9:1 slope to clear

Airport Ownership and Management from official FAA records

Ownership: Publicly-owned
Owner: CITY OF BOWLING GREEN
16 W CHURCH ST
BOWLING GREEN, MO 63334
Phone 573-324-5451
Manager: JAKE MCDONALD
16 W CHURCH ST
BOWLING GREEN, MO 63334
Phone (573) 213-2174
AIRPORT PHONE (830) 423-2169

Airport Operational Statistics

Aircraft based on the field: 8
Single engine airplanes: 8
    
Aircraft operations: avg 100/week *
86% local general aviation
10% transient general aviation
3% air taxi
1% military
* for 12-month period ending 31 December 2020

Additional Remarks

DO NOT OVERFLY PRISON AREA.
FOR CD CTC KANSAS CITY ARTCC AT 913-254-8508.

Instrument Procedures

NOTE: All procedures below are presented as PDF files. If you need a reader for these files, you should download the free Adobe Reader.

NOT FOR NAVIGATION. Please procure official charts for flight.
FAA instrument procedures published for use from 16 June 2022 at 0901Z to 14 July 2022 at 0900z.

 
IAPs - Instrument Approach Procedures
RNAV (GPS) RWY 13 **CHANGED**   download (179KB)
RNAV (GPS) RWY 31 **CHANGED**   download (186KB)
NOTE: Special Take-Off Minimums/Departure Procedures apply   download (431KB)

Other nearby airports with instrument procedures:

KHAE - Hannibal Regional Airport (24 nm NW)
KPPQ - Pittsfield Penstone Municipal Airport (26 nm NE)
K52 - Cpt Ben Smith Airfield - Monroe City (28 nm NW)
KMYJ - Mexico Memorial Airport (31 nm SW)
KUIN - Quincy Regional Airport-Baldwin Field (34 nm N)
 
Loc | Ops | Rwys | IFR | FBO | Links
Com | Nav | Svcs | Stats | Notes
Area around H19 (Bowling Green Municipal Airport)
 
Road maps at: MapQuest Bing Google
 
Aerial photo
WARNING: Photo may not be current or correct
Aerial photo of H19 (Bowling Green Municipal Airport)
Taken in January 2008

Do you have a better or more recent aerial photo of Bowling Green Municipal Airport that you would like to share? If so, please send us your photo.

 
Sectional chart

 
Airport distance calculator
Flying to Bowling Green Municipal Airport? Find the distance to fly.

From to H19

Sunrise and sunset
Times for 02-Jul-2022
 Local
(UTC-5)
 Zulu
(UTC)
Morning civil twilight05:1110:11
Sunrise05:4310:43
Sunset20:3501:35
Evening civil twilight21:0702:07

Current date and time
Zulu (UTC)  03-Jul-2022 00:10:33
Local (UTC-5)  02-Jul-2022 19:10:33
 
METAR
KHAE 
24nm NW 
022355Z AUTO 00000KT 10SM SCT070 OVC120 25/17 A3003 RMK AO2
KPPQ 
26nm NE 
022355Z AUTO 00000KT 10SM OVC080 24/20 A3005 RMK AO2 T02380203 10261 20237
KMYJ 
31nm SW 
022355Z AUTO 08003KT 10SM OVC090 22/20 A3002 RMK AO2
KUIN 
35nm N 
022354Z AUTO 11008KT 10SM CLR 25/16 A3001 RMK AO2 SLP158 T02500161 10250 20244 58008
KI63 
42nm NE 
022355Z AUTO 08003KT 10SM SCT110 23/17 A3003 RMK AO2 T02320169 10245 20225
KSET 
45nm SE 
022354Z AUTO 04004KT 10SM OVC090 25/21 A3000 RMK AO2 SLP154 60005 T02500211 10261 20244 53002
TAF
KUIN 
35nm N 
021758Z 0218/0318 11006KT P6SM VCSH BKN200 FM030900 10005KT P6SM VCTS BKN150CB FM031400 14007KT P6SM VCSH SCT080
NOTAMs
Click for the latest NOTAMs
NOTAMs are issued by the DoD/FAA and will open in a separate window not controlled by AirNav.

 

 
 

FBO, Fuel Providers, and Aircraft Ground Support

  
 Business Name 
 
 Contact 
 
 Services / Description 
 
Fuel Prices
 
Comments
  
City of Bowling Green 573-324-5451
no information available

If you are affiliated with City of Bowling Green and would like to show here your services, contact info, web link, logo, and more, click here
100LL
SS $5.00 
 Updated 13-Dec-2021
 
   1 read write
SS=Self service
Update Fuel Prices
 

Would you like to see your business listed on this page?

 If your business provides an interesting product or service to pilots, flight crews, aircraft, or users of the Bowling Green Municipal Airport, you should consider listing it here.  To start the listing process, click on the button below
 
Add a business
 

Other Pages about Bowling Green Municipal Airport

Update a link
 
Copyright © AirNav, LLC. All rights reserved. Privacy Policy  Contact